Time,TemperatureF,DewpointF,PressureIn,WindDirection,WindDirectionDegrees,WindSpeedMPH,WindSpeedGustMPH,Humidity,HourlyPrecipIn,Conditions,Clouds,dailyrainin,SoftwareType,DateUTC
2013-07-24 00:01:00,73.8,70.0,29.72,North,0,0.0,1.6,88,0.00,,,0.00,pywws,2013-07-24 04:01:00,
2013-07-24 00:02:00,73.8,70.0,29.72,North,0,0.0,1.6,88,0.00,,,0.00,pywws,2013-07-24 04:02:00,
2013-07-24 00:04:00,73.8,70.0,29.72,North,0,0.0,1.6,88,0.00,,,0.00,pywws,2013-07-24 04:04:00,
2013-07-24 00:10:00,73.6,69.8,29.72,NE,45,0.0,0.0,88,0.00,,,0.00,pywws,2013-07-24 04:10:00,
2013-07-24 00:15:00,73.4,69.6,29.72,NE,45,0.0,0.0,88,0.00,,,0.00,pywws,2013-07-24 04:15:00,
2013-07-24 00:21:00,73.4,69.6,29.72,SE,135,0.0,0.0,88,0.00,,,0.00,pywws,2013-07-24 04:21:00,
2013-07-24 00:27:00,73.2,69.1,29.72,SE,135,0.0,0.0,87,0.00,,,0.00,pywws,2013-07-24 04:27:00,
2013-07-24 00:33:00,73.0,68.9,29.72,SSW,202,0.0,0.0,87,0.00,,,0.00,pywws,2013-07-24 04:33:00,
2013-07-24 00:38:00,73.0,68.9,29.72,West,270,0.0,0.0,87,0.00,,,0.00,pywws,2013-07-24 04:38:00,
2013-07-24 00:44:00,72.9,68.8,29.72,West,270,0.0,0.0,87,0.00,,,0.00,pywws,2013-07-24 04:44:00,
2013-07-24 00:50:00,72.9,68.8,29.72,West,270,0.0,2.2,87,0.00,,,0.00,pywws,2013-07-24 04:50:00,
2013-07-24 00:55:00,72.9,68.8,29.73,NW,315,0.0,0.0,87,0.00,,,0.00,pywws,2013-07-24 04:55:00,
2013-07-24 01:01:00,72.9,68.8,29.73,NW,315,0.0,0.7,87,0.00,,,0.00,pywws,2013-07-24 05:01:00,
2013-07-24 01:06:00,72.7,68.9,29.72,West,270,0.0,0.7,88,0.00,,,0.00,pywws,2013-07-24 05:06:00,
2013-07-24 01:12:00,72.7,68.9,29.72,West,270,0.0,0.7,88,0.00,,,0.00,pywws,2013-07-24 05:12:00,
2013-07-24 01:18:00,72.7,68.9,29.72,North,0,0.7,1.6,88,0.00,,,0.00,pywws,2013-07-24 05:18:00,
2013-07-24 01:23:00,72.7,68.9,29.72,West,270,0.7,1.6,88,0.00,,,0.00,pywws,2013-07-24 05:23:00,
2013-07-24 01:29:00,72.5,68.7,29.72,NW,315,0.0,0.0,88,0.00,,,0.00,pywws,2013-07-24 05:29:00,
2013-07-24 01:35:00,72.5,68.4,29.72,SW,225,0.0,0.0,87,0.00,,,0.00,pywws,2013-07-24 05:35:00,
2013-07-24 01:41:00,72.3,68.2,29.72,NW,315,0.0,0.0,87,0.00,,,0.00,pywws,2013-07-24 05:41:00,
2013-07-24 01:47:00,72.3,68.2,29.72,West,270,0.0,0.7,87,0.00,,,0.00,pywws,2013-07-24 05:47:00,
2013-07-24 01:53:00,72.3,68.2,29.72,West,270,0.7,0.7,87,0.00,,,0.00,pywws,2013-07-24 05:53:00,
2013-07-24 01:59:00,72.1,68.0,29.72,West,270,0.0,0.0,87,0.00,,,0.00,pywws,2013-07-24 05:59:00,
2013-07-24 02:05:00,72.1,68.0,29.72,West,270,0.0,0.0,87,0.00,,,0.00,pywws,2013-07-24 06:05:00,
2013-07-24 02:11:00,72.0,67.9,29.72,SE,135,0.0,0.0,87,0.00,,,0.00,pywws,2013-07-24 06:11:00,
2013-07-24 02:17:00,71.8,67.7,29.72,East,90,0.0,0.0,87,0.00,,,0.00,pywws,2013-07-24 06:17:00,
2013-07-24 02:23:00,71.6,67.5,29.72,SW,225,0.0,0.0,87,0.00,,,0.00,pywws,2013-07-24 06:23:00,
2013-07-24 02:29:00,71.4,67.7,29.72,SW,225,0.0,0.7,88,0.00,,,0.00,pywws,2013-07-24 06:29:00,
2013-07-24 02:34:00,71.4,67.7,29.71,West,270,0.7,0.7,88,0.00,,,0.00,pywws,2013-07-24 06:34:00,
2013-07-24 02:40:00,71.4,68.0,29.72,West,270,0.0,0.0,89,0.00,,,0.00,pywws,2013-07-24 06:40:00,
2013-07-24 02:46:00,71.4,68.0,29.71,West,270,0.0,0.7,89,0.00,,,0.00,pywws,2013-07-24 06:46:00,
2013-07-24 02:51:00,71.4,68.0,29.72,WSW,248,0.7,2.2,89,0.00,,,0.00,pywws,2013-07-24 06:51:00,
2013-07-24 02:56:00,71.1,67.6,29.72,West,270,0.7,2.2,89,0.00,,,0.00,pywws,2013-07-24 06:56:00,
2013-07-24 03:02:00,71.1,67.6,29.71,West,270,0.0,0.7,89,0.00,,,0.00,pywws,2013-07-24 07:02:00,
2013-07-24 03:07:00,71.1,67.6,29.71,West,270,0.0,0.7,89,0.00,,,0.00,pywws,2013-07-24 07:07:00,
2013-07-24 03:14:00,71.1,67.6,29.71,West,270,0.0,0.7,89,0.00,,,0.00,pywws,2013-07-24 07:14:00,
2013-07-24 03:19:00,71.1,67.6,29.71,West,270,0.0,0.7,89,0.00,,,0.00,pywws,2013-07-24 07:19:00,
2013-07-24 03:25:00,71.1,67.6,29.71,WSW,248,0.0,0.0,89,0.00,,,0.00,pywws,2013-07-24 07:25:00,
2013-07-24 03:30:00,71.1,67.3,29.71,South,180,0.7,1.6,88,0.00,,,0.00,pywws,2013-07-24 07:30:00,
2013-07-24 03:36:00,70.9,67.1,29.71,SW,225,0.7,1.6,88,0.00,,,0.00,pywws,2013-07-24 07:36:00,
2013-07-24 03:42:00,70.9,67.1,29.71,East,90,0.0,0.0,88,0.00,,,0.00,pywws,2013-07-24 07:42:00,
2013-07-24 03:47:00,70.9,67.1,29.71,East,90,0.0,0.0,88,0.00,,,0.00,pywws,2013-07-24 07:47:00,
2013-07-24 03:53:00,70.7,67.0,29.71,East,90,0.0,0.0,88,0.00,,,0.00,pywws,2013-07-24 07:53:00,
2013-07-24 03:58:00,70.5,66.8,29.71,East,90,0.0,0.7,88,0.00,,,0.00,pywws,2013-07-24 07:58:00,
2013-07-24 04:04:00,70.5,66.8,29.71,SE,135,0.0,0.7,88,0.00,,,0.00,pywws,2013-07-24 08:04:00,
2013-07-24 04:10:00,70.3,66.9,29.71,SE,135,0.0,0.0,89,0.00,,,0.00,pywws,2013-07-24 08:10:00,
2013-07-24 04:15:00,70.3,66.9,29.71,SE,135,0.0,0.0,89,0.00,,,0.00,pywws,2013-07-24 08:15:00,
2013-07-24 04:21:00,70.3,66.9,29.71,West,270,0.0,0.0,89,0.00,,,0.00,pywws,2013-07-24 08:21:00,
2013-07-24 04:27:00,70.3,66.9,29.71,West,270,0.0,0.0,89,0.00,,,0.00,pywws,2013-07-24 08:27:00,
2013-07-24 04:33:00,70.2,66.8,29.71,NNW,338,1.6,2.2,89,0.00,,,0.00,pywws,2013-07-24 08:33:00,
2013-07-24 04:38:00,70.2,66.8,29.71,NW,315,0.0,0.0,89,0.00,,,0.00,pywws,2013-07-24 08:38:00,
2013-07-24 04:44:00,70.2,67.1,29.71,North,0,0.7,1.6,90,0.00,,,0.00,pywws,2013-07-24 08:44:00,
2013-07-24 04:50:00,70.2,67.1,29.72,North,0,1.6,2.2,90,0.00,,,0.00,pywws,2013-07-24 08:50:00,
2013-07-24 04:55:00,70.3,67.3,29.72,NW,315,0.7,1.6,90,0.00,,,0.00,pywws,2013-07-24 08:55:00,
2013-07-24 05:01:00,70.3,67.3,29.71,SE,135,0.0,0.7,90,0.00,,,0.00,pywws,2013-07-24 09:01:00,
2013-07-24 05:06:00,70.2,67.1,29.72,South,180,0.0,0.0,90,0.00,,,0.00,pywws,2013-07-24 09:06:00,
2013-07-24 05:12:00,70.2,67.1,29.72,South,180,0.0,0.0,90,0.00,,,0.00,pywws,2013-07-24 09:12:00,
2013-07-24 05:18:00,70.2,67.1,29.72,East,90,0.0,0.0,90,0.00,,,0.00,pywws,2013-07-24 09:18:00,
2013-07-24 05:24:00,70.0,66.9,29.71,East,90,0.0,0.0,90,0.00,,,0.00,pywws,2013-07-24 09:24:00,
2013-07-24 05:30:00,70.0,66.9,29.72,SW,225,0.0,0.0,90,0.00,,,0.00,pywws,2013-07-24 09:30:00,
2013-07-24 05:35:00,70.0,66.9,29.72,SW,225,0.0,0.0,90,0.00,,,0.00,pywws,2013-07-24 09:35:00,
2013-07-24 05:41:00,70.0,66.9,29.72,SW,225,0.0,0.0,90,0.00,,,0.00,pywws,2013-07-24 09:41:00,
2013-07-24 05:46:00,69.8,66.7,29.72,West,270,0.0,0.0,90,0.00,,,0.00,pywws,2013-07-24 09:46:00,
2013-07-24 05:52:00,69.8,66.7,29.72,West,270,0.0,0.0,90,0.00,,,0.00,pywws,2013-07-24 09:52:00,
2013-07-24 05:58:00,69.8,66.7,29.73,West,270,0.0,0.0,90,0.00,,,0.00,pywws,2013-07-24 09:58:00,
2013-07-24 06:04:00,70.0,66.9,29.73,West,270,0.0,0.0,90,0.00,,,0.00,pywws,2013-07-24 10:04:00,
2013-07-24 06:10:00,70.0,67.2,29.73,West,270,0.0,0.0,91,0.00,,,0.00,pywws,2013-07-24 10:10:00,
2013-07-24 06:15:00,70.0,67.2,29.73,North,0,0.0,0.0,91,0.00,,,0.00,pywws,2013-07-24 10:15:00,
2013-07-24 06:21:00,70.2,67.4,29.73,North,0,0.0,0.0,91,0.00,,,0.00,pywws,2013-07-24 10:21:00,
2013-07-24 06:26:00,70.2,67.4,29.74,West,270,0.0,0.0,91,0.00,,,0.00,pywws,2013-07-24 10:26:00,
2013-07-24 06:32:00,70.3,67.6,29.74,West,270,0.7,1.6,91,0.00,,,0.00,pywws,2013-07-24 10:32:00,
2013-07-24 06:38:00,70.5,67.8,29.74,NW,315,1.6,3.1,91,0.00,,,0.00,pywws,2013-07-24 10:38:00,
2013-07-24 06:44:00,70.5,67.8,29.75,WNW,292,2.2,3.1,91,0.00,,,0.00,pywws,2013-07-24 10:44:00,
2013-07-24 06:50:00,70.7,67.9,29.75,West,270,1.6,2.2,91,0.00,,,0.00,pywws,2013-07-24 10:50:00,
2013-07-24 06:55:00,70.9,68.1,29.75,West,270,2.2,3.1,91,0.00,,,0.00,pywws,2013-07-24 10:55:00,
2013-07-24 07:01:00,71.1,68.3,29.75,WSW,248,0.7,1.6,91,0.00,,,0.00,pywws,2013-07-24 11:01:00,
2013-07-24 07:06:00,71.1,68.3,29.75,NW,315,0.0,0.0,91,0.00,,,0.00,pywws,2013-07-24 11:06:00,
2013-07-24 07:12:00,71.4,68.6,29.75,West,270,2.2,3.1,91,0.00,,,0.00,pywws,2013-07-24 11:12:00,
2013-07-24 07:18:00,71.8,68.4,29.76,NW,315,3.1,3.8,89,0.01,,,0.01,pywws,2013-07-24 11:18:00,
2013-07-24 07:24:00,72.0,68.2,29.76,NNE,22,3.1,3.8,88,0.01,,,0.01,pywws,2013-07-24 11:24:00,
2013-07-24 07:30:00,72.0,67.9,29.76,SW,225,0.7,2.2,87,0.01,,,0.01,pywws,2013-07-24 11:30:00,
2013-07-24 07:35:00,72.1,67.7,29.77,West,270,1.6,3.1,86,0.01,,,0.01,pywws,2013-07-24 11:35:00,
2013-07-24 07:41:00,72.1,67.4,29.77,SW,225,0.0,2.2,85,0.01,,,0.01,pywws,2013-07-24 11:41:00,
2013-07-24 07:46:00,72.3,67.2,29.77,NW,315,1.6,3.1,84,0.01,,,0.01,pywws,2013-07-24 11:46:00,
2013-07-24 07:52:00,72.5,67.0,29.77,West,270,0.7,1.6,83,0.01,,,0.01,pywws,2013-07-24 11:52:00,
2013-07-24 07:58:00,72.7,66.9,29.78,NW,315,3.8,5.4,82,0.01,,,0.01,pywws,2013-07-24 11:58:00,
2013-07-24 08:03:00,72.9,66.7,29.78,NW,315,2.2,4.5,81,0.01,,,0.01,pywws,2013-07-24 12:03:00,
2013-07-24 08:09:00,72.9,66.0,29.78,NW,315,7.6,10.7,79,0.01,,,0.01,pywws,2013-07-24 12:09:00,
2013-07-24 08:14:00,73.2,65.9,29.78,West,270,5.4,8.3,78,0.01,,,0.01,pywws,2013-07-24 12:14:00,
2013-07-24 08:20:00,73.4,65.4,29.79,West,270,3.1,5.4,76,0.00,,,0.01,pywws,2013-07-24 12:20:00,
2013-07-24 08:26:00,73.8,65.7,29.79,NW,315,7.6,10.7,76,0.00,,,0.01,pywws,2013-07-24 12:26:00,
2013-07-24 08:31:00,73.9,65.5,29.79,WSW,248,3.8,6.0,75,0.00,,,0.01,pywws,2013-07-24 12:31:00,
2013-07-24 08:37:00,74.3,65.5,29.79,NNW,338,3.8,6.9,74,0.00,,,0.01,pywws,2013-07-24 12:37:00,
2013-07-24 08:42:00,74.7,65.8,29.79,NW,315,4.5,8.3,74,0.00,,,0.01,pywws,2013-07-24 12:42:00,
2013-07-24 08:48:00,75.0,65.8,29.79,North,0,3.1,6.9,73,0.00,,,0.01,pywws,2013-07-24 12:48:00,
2013-07-24 08:54:00,75.4,64.9,29.79,NW,315,4.5,10.7,70,0.00,,,0.01,pywws,2013-07-24 12:54:00,
2013-07-24 08:59:00,75.4,64.9,29.79,NNW,338,6.0,9.2,70,0.00,,,0.01,pywws,2013-07-24 12:59:00,
2013-07-24 09:05:00,75.7,65.2,29.80,NNW,338,6.0,9.8,70,0.00,,,0.01,pywws,2013-07-24 13:05:00,
2013-07-24 09:10:00,76.1,64.8,29.80,North,0,3.8,6.0,68,0.00,,,0.01,pywws,2013-07-24 13:10:00,
2013-07-24 09:16:00,76.3,64.5,29.80,NW,315,8.3,12.1,67,0.00,,,0.01,pywws,2013-07-24 13:16:00,
2013-07-24 09:21:00,76.3,64.5,29.80,NW,315,5.4,9.2,67,0.00,,,0.01,pywws,2013-07-24 13:21:00,
2013-07-24 09:26:00,76.8,65.0,29.80,North,0,3.8,5.4,67,0.00,,,0.01,pywws,2013-07-24 13:26:00,
2013-07-24 09:31:00,77.0,64.8,29.80,North,0,5.4,8.3,66,0.00,,,0.01,pywws,2013-07-24 13:31:00,
2013-07-24 09:37:00,77.5,65.3,29.80,North,0,3.1,5.4,66,0.00,,,0.01,pywws,2013-07-24 13:37:00,
2013-07-24 09:42:00,78.4,65.2,29.80,North,0,6.0,8.3,64,0.00,,,0.01,pywws,2013-07-24 13:42:00,
2013-07-24 09:43:00,78.4,65.2,29.80,NW,315,6.9,7.6,64,0.00,,,0.01,pywws,2013-07-24 13:43:00,
2013-07-24 09:49:00,78.8,65.6,29.81,North,0,2.2,6.0,64,0.00,,,0.01,pywws,2013-07-24 13:49:00,
2013-07-24 09:54:00,79.7,66.0,29.81,NW,315,4.5,6.0,63,0.00,,,0.01,pywws,2013-07-24 13:54:00,
2013-07-24 10:00:00,80.1,65.8,29.81,North,0,4.5,8.3,62,0.00,,,0.01,pywws,2013-07-24 14:00:00,
2013-07-24 10:06:00,80.2,65.1,29.81,North,0,6.0,12.1,60,0.00,,,0.01,pywws,2013-07-24 14:06:00,
2013-07-24 10:11:00,80.1,64.9,29.81,NNW,338,4.5,6.0,60,0.00,,,0.01,pywws,2013-07-24 14:11:00,
2013-07-24 10:17:00,79.9,64.2,29.81,North,0,3.1,4.5,59,0.00,,,0.01,pywws,2013-07-24 14:17:00,
2013-07-24 10:22:00,79.9,65.2,29.81,North,0,4.5,7.6,61,0.00,,,0.01,pywws,2013-07-24 14:22:00,
2013-07-24 10:25:00,79.9,64.7,29.81,NW,315,3.8,7.6,60,0.00,,,0.01,pywws,2013-07-24 14:25:00,
2013-07-24 10:30:00,79.9,64.7,29.81,NW,315,1.6,3.8,60,0.00,,,0.01,pywws,2013-07-24 14:30:00,
2013-07-24 10:36:00,80.1,64.9,29.82,NW,315,3.8,5.4,60,0.00,,,0.01,pywws,2013-07-24 14:36:00,
2013-07-24 10:41:00,80.4,65.7,29.82,NNW,338,5.4,8.3,61,0.00,,,0.01,pywws,2013-07-24 14:41:00,
2013-07-24 10:46:00,80.2,64.6,29.83,NW,315,6.0,11.4,59,0.00,,,0.01,pywws,2013-07-24 14:46:00,
2013-07-24 10:52:00,79.7,64.1,29.83,North,0,3.8,8.3,59,0.00,,,0.01,pywws,2013-07-24 14:52:00,
2013-07-24 10:58:00,79.9,64.2,29.83,SW,225,3.1,5.4,59,0.00,,,0.01,pywws,2013-07-24 14:58:00,
2013-07-24 11:04:00,79.9,64.7,29.83,WNW,292,6.9,10.7,60,0.00,,,0.01,pywws,2013-07-24 15:04:00,
2013-07-24 11:10:00,79.9,64.7,29.84,North,0,5.4,7.6,60,0.00,,,0.01,pywws,2013-07-24 15:10:00,
2013-07-24 11:15:00,79.9,64.2,29.84,NW,315,4.5,9.8,59,0.00,,,0.01,pywws,2013-07-24 15:15:00,
2013-07-24 11:21:00,80.2,64.6,29.84,North,0,7.6,11.4,59,0.00,,,0.01,pywws,2013-07-24 15:21:00,
2013-07-24 11:26:00,80.4,64.8,29.84,NNW,338,8.3,10.7,59,0.00,,,0.01,pywws,2013-07-24 15:26:00,
2013-07-24 11:32:00,80.2,64.6,29.84,NW,315,8.3,13.0,59,0.00,,,0.01,pywws,2013-07-24 15:32:00,
2013-07-24 11:38:00,80.1,63.9,29.84,NW,315,5.4,9.8,58,0.00,,,0.01,pywws,2013-07-24 15:38:00,
2013-07-24 11:43:00,80.1,63.9,29.84,North,0,4.5,6.9,58,0.00,,,0.01,pywws,2013-07-24 15:43:00,
2013-07-24 11:49:00,80.1,63.9,29.85,NW,315,3.8,5.4,58,0.00,,,0.01,pywws,2013-07-24 15:49:00,
2013-07-24 11:54:00,80.2,63.6,29.84,WNW,292,11.4,17.5,57,0.00,,,0.01,pywws,2013-07-24 15:54:00,
2013-07-24 12:00:00,79.9,63.3,29.85,North,0,6.9,15.9,57,0.00,,,0.01,pywws,2013-07-24 16:00:00,
2013-07-24 12:06:00,79.9,63.3,29.84,West,270,8.3,12.1,57,0.00,,,0.01,pywws,2013-07-24 16:06:00,
2013-07-24 12:11:00,79.7,62.6,29.85,NW,315,10.7,13.6,56,0.00,,,0.01,pywws,2013-07-24 16:11:00,
2013-07-24 12:17:00,79.5,62.9,29.85,NW,315,5.4,8.3,57,0.00,,,0.01,pywws,2013-07-24 16:17:00,
2013-07-24 12:22:00,79.5,62.4,29.85,NW,315,8.3,15.2,56,0.00,,,0.01,pywws,2013-07-24 16:22:00,
2013-07-24 12:28:00,79.5,62.4,29.85,North,0,5.4,8.3,56,0.00,,,0.01,pywws,2013-07-24 16:28:00,
2013-07-24 12:34:00,79.9,62.8,29.85,North,0,4.5,7.6,56,0.00,,,0.01,pywws,2013-07-24 16:34:00,
2013-07-24 12:39:00,80.4,63.8,29.86,WNW,292,6.0,9.8,57,0.00,,,0.01,pywws,2013-07-24 16:39:00,
2013-07-24 12:45:00,80.8,63.1,29.85,NW,315,4.5,9.2,55,0.00,,,0.01,pywws,2013-07-24 16:45:00,
2013-07-24 12:50:00,80.8,63.1,29.86,NNW,338,6.9,8.3,55,0.00,,,0.01,pywws,2013-07-24 16:50:00,
2013-07-24 12:56:00,80.8,63.1,29.85,SSW,202,6.9,10.7,55,0.00,,,0.01,pywws,2013-07-24 16:56:00,
2013-07-24 13:02:00,80.8,64.1,29.86,NW,315,6.0,9.2,57,0.00,,,0.01,pywws,2013-07-24 17:02:00,
2013-07-24 13:07:00,81.0,63.2,29.86,NW,315,5.4,8.3,55,0.00,,,0.01,pywws,2013-07-24 17:07:00,
2013-07-24 13:13:00,80.8,62.6,29.86,NW,315,12.1,14.5,54,0.00,,,0.01,pywws,2013-07-24 17:13:00,
2013-07-24 13:18:00,80.6,62.4,29.86,NW,315,4.5,6.0,54,0.00,,,0.01,pywws,2013-07-24 17:18:00,
2013-07-24 13:24:00,81.0,62.7,29.85,NW,315,5.4,8.3,54,0.00,,,0.01,pywws,2013-07-24 17:24:00,
2013-07-24 13:30:00,80.8,62.6,29.85,NE,45,6.9,12.1,54,0.00,,,0.01,pywws,2013-07-24 17:30:00,
2013-07-24 13:35:00,80.8,62.6,29.85,NW,315,8.3,13.6,54,0.00,,,0.01,pywws,2013-07-24 17:35:00,
2013-07-24 13:41:00,80.8,62.6,29.85,NW,315,6.9,8.3,54,0.00,,,0.01,pywws,2013-07-24 17:41:00,
2013-07-24 13:46:00,81.1,62.9,29.85,North,0,6.9,15.9,54,0.00,,,0.01,pywws,2013-07-24 17:46:00,
2013-07-24 13:52:00,81.3,62.5,29.85,NW,315,4.5,8.3,53,0.00,,,0.01,pywws,2013-07-24 17:52:00,
2013-07-24 13:58:00,81.3,62.5,29.86,North,0,8.3,10.7,53,0.00,,,0.01,pywws,2013-07-24 17:58:00,
2013-07-24 14:04:00,81.3,63.1,29.86,North,0,9.2,12.1,54,0.00,,,0.01,pywws,2013-07-24 18:04:00,
2013-07-24 14:10:00,81.9,63.6,29.85,NW,315,6.0,9.8,54,0.00,,,0.01,pywws,2013-07-24 18:10:00,
2013-07-24 14:15:00,81.9,62.5,29.86,NNW,338,6.9,9.8,52,0.00,,,0.01,pywws,2013-07-24 18:15:00,
2013-07-24 14:21:00,81.3,62.0,29.86,NW,315,5.4,7.6,52,0.00,,,0.01,pywws,2013-07-24 18:21:00,
2013-07-24 14:26:00,81.0,62.7,29.86,NW,315,6.9,8.3,54,0.00,,,0.01,pywws,2013-07-24 18:26:00,
2013-07-24 14:32:00,81.3,62.5,29.87,NNW,338,6.9,12.1,53,0.00,,,0.01,pywws,2013-07-24 18:32:00,
2013-07-24 14:39:00,81.0,62.2,29.87,NW,315,7.6,10.7,53,0.00,,,0.01,pywws,2013-07-24 18:39:00,
2013-07-24 14:45:00,81.0,62.2,29.88,NW,315,7.6,9.2,53,0.00,,,0.01,pywws,2013-07-24 18:45:00,
2013-07-24 14:50:00,81.0,61.7,29.88,North,0,5.4,8.3,52,0.00,,,0.01,pywws,2013-07-24 18:50:00,
2013-07-24 14:56:00,81.1,61.8,29.88,NW,315,12.1,14.5,52,0.00,,,0.01,pywws,2013-07-24 18:56:00,
2013-07-24 15:05:00,81.0,61.1,29.88,West,270,4.5,8.3,51,0.00,,,0.01,pywws,2013-07-24 19:05:00,
2013-07-24 15:11:00,81.5,61.6,29.88,NW,315,11.4,13.6,51,0.00,,,0.01,pywws,2013-07-24 19:11:00,
2013-07-24 15:17:00,81.1,60.7,29.88,NW,315,8.3,9.8,50,0.00,,,0.01,pywws,2013-07-24 19:17:00,
2013-07-24 15:22:00,80.8,60.9,29.88,North,0,5.4,7.6,51,0.00,,,0.01,pywws,2013-07-24 19:22:00,
2013-07-24 15:28:00,81.1,61.3,29.88,North,0,7.6,10.7,51,0.00,,,0.01,pywws,2013-07-24 19:28:00,
2013-07-24 15:34:00,80.8,60.9,29.88,NNW,338,4.5,6.0,51,0.00,,,0.01,pywws,2013-07-24 19:34:00,
2013-07-24 15:39:00,80.6,60.8,29.88,North,0,5.4,6.9,51,0.00,,,0.01,pywws,2013-07-24 19:39:00,
2013-07-24 15:45:00,80.6,60.8,29.88,West,270,6.0,7.6,51,0.00,,,0.01,pywws,2013-07-24 19:45:00,
2013-07-24 15:50:00,81.0,61.1,29.88,North,0,5.4,10.7,51,0.00,,,0.01,pywws,2013-07-24 19:50:00,
2013-07-24 15:56:00,81.0,61.1,29.87,North,0,4.5,6.9,51,0.00,,,0.01,pywws,2013-07-24 19:56:00,
2013-07-24 16:02:00,80.8,60.9,29.88,NW,315,6.9,9.2,51,0.00,,,0.01,pywws,2013-07-24 20:02:00,
2013-07-24 16:07:00,80.8,60.9,29.87,West,270,5.4,9.2,51,0.00,,,0.01,pywws,2013-07-24 20:07:00,
2013-07-24 16:13:00,81.5,61.6,29.87,WNW,292,5.4,10.7,51,0.00,,,0.01,pywws,2013-07-24 20:13:00,
2013-07-24 16:18:00,81.9,60.8,29.87,NW,315,4.5,8.3,49,0.00,,,0.01,pywws,2013-07-24 20:18:00,
2013-07-24 16:24:00,82.4,61.3,29.87,NNE,22,3.8,8.3,49,0.00,,,0.01,pywws,2013-07-24 20:24:00,
2013-07-24 16:31:00,82.4,61.3,29.87,North,0,6.9,9.2,49,0.00,,,0.01,pywws,2013-07-24 20:31:00,
2013-07-24 16:37:00,82.4,61.3,29.87,NW,315,6.9,9.8,49,0.00,,,0.01,pywws,2013-07-24 20:37:00,
2013-07-24 16:42:00,81.7,60.6,29.87,North,0,1.6,3.1,49,0.00,,,0.01,pywws,2013-07-24 20:42:00,
2013-07-24 16:48:00,81.5,60.5,29.87,NE,45,6.9,9.8,49,0.00,,,0.01,pywws,2013-07-24 20:48:00,
2013-07-24 16:54:00,81.3,60.9,29.88,NW,315,4.5,7.6,50,0.00,,,0.01,pywws,2013-07-24 20:54:00,
2013-07-24 16:59:00,81.1,60.1,29.88,NW,315,7.6,10.7,49,0.00,,,0.01,pywws,2013-07-24 20:59:00,
2013-07-24 17:05:00,80.6,59.6,29.88,West,270,3.8,5.4,49,0.00,,,0.01,pywws,2013-07-24 21:05:00,
2013-07-24 17:10:00,80.2,59.9,29.88,NW,315,7.6,10.7,50,0.00,,,0.01,pywws,2013-07-24 21:10:00,
2013-07-24 17:16:00,79.9,60.1,29.88,North,0,3.1,6.0,51,0.00,,,0.01,pywws,2013-07-24 21:16:00,
2013-07-24 17:21:00,80.1,60.8,29.88,NE,45,1.6,3.8,52,0.00,,,0.01,pywws,2013-07-24 21:21:00,
2013-07-24 17:26:00,80.2,60.4,29.88,North,0,3.8,8.3,51,0.00,,,0.01,pywws,2013-07-24 21:26:00,
2013-07-24 17:32:00,80.4,59.5,29.88,North,0,4.5,6.9,49,0.00,,,0.01,pywws,2013-07-24 21:32:00,
2013-07-24 17:38:00,80.4,60.1,29.88,East,90,1.6,2.2,50,0.00,,,0.01,pywws,2013-07-24 21:38:00,
2013-07-24 17:43:00,80.2,59.9,29.88,NW,315,6.0,9.8,50,0.00,,,0.01,pywws,2013-07-24 21:43:00,
2013-07-24 17:49:00,79.9,59.6,29.88,North,0,3.8,4.5,50,0.00,,,0.01,pywws,2013-07-24 21:49:00,
2013-07-24 17:54:00,79.5,58.7,29.89,NW,315,8.3,10.7,49,0.00,,,0.01,pywws,2013-07-24 21:54:00,
2013-07-24 18:05:00,79.5,58.7,29.89,NW,315,4.5,9.2,49,0.00,,,0.01,pywws,2013-07-24 22:05:00,
2013-07-24 18:10:00,79.7,58.8,29.89,NW,315,3.8,7.6,49,0.00,,,0.01,pywws,2013-07-24 22:10:00,
2013-07-24 18:16:00,80.1,59.2,29.89,NW,315,4.5,9.2,49,0.00,,,0.01,pywws,2013-07-24 22:16:00,
2013-07-24 18:22:00,80.4,58.3,29.89,North,0,7.6,11.4,47,0.00,,,0.01,pywws,2013-07-24 22:22:00,
2013-07-24 18:27:00,80.2,58.2,29.89,NW,315,7.6,10.7,47,0.00,,,0.01,pywws,2013-07-24 22:27:00,
2013-07-24 18:33:00,80.1,58.0,29.90,NE,45,3.1,6.9,47,0.00,,,0.01,pywws,2013-07-24 22:33:00,
2013-07-24 18:38:00,79.7,57.7,29.90,NW,315,4.5,8.3,47,0.00,,,0.01,pywws,2013-07-24 22:38:00,
2013-07-24 18:44:00,79.5,57.5,29.91,North,0,6.0,9.8,47,0.00,,,0.01,pywws,2013-07-24 22:44:00,
2013-07-24 18:50:00,79.5,57.5,29.91,NW,315,6.9,13.6,47,0.00,,,0.01,pywws,2013-07-24 22:50:00,
2013-07-24 18:56:00,79.5,57.5,29.91,North,0,4.5,6.0,47,0.00,,,0.01,pywws,2013-07-24 22:56:00,
2013-07-24 19:05:00,79.5,56.9,29.91,North,-999,4.5,6.9,46,0.00,,,0.01,pywws,2013-07-24 23:05:00,
2013-07-24 19:10:00,79.3,56.7,29.91,NW,315,2.2,3.8,46,0.00,,,0.01,pywws,2013-07-24 23:10:00,
2013-07-24 19:16:00,79.7,57.1,29.91,NW,315,4.5,6.0,46,0.00,,,0.01,pywws,2013-07-24 23:16:00,
2013-07-24 19:22:00,80.1,57.4,29.92,NW,315,7.6,9.2,46,0.00,,,0.01,pywws,2013-07-24 23:22:00,
2013-07-24 19:27:00,79.7,57.1,29.92,North,0,2.2,3.1,46,0.00,,,0.01,pywws,2013-07-24 23:27:00,
2013-07-24 19:33:00,78.8,56.8,29.93,North,-999,7.6,9.8,47,0.00,,,0.01,pywws,2013-07-24 23:33:00,
2013-07-24 19:38:00,78.1,57.3,29.93,NW,315,5.4,9.2,49,0.00,,,0.01,pywws,2013-07-24 23:38:00,
2013-07-24 19:44:00,77.4,56.7,29.93,North,0,6.0,8.3,49,0.00,,,0.01,pywws,2013-07-24 23:44:00,
2013-07-24 19:50:00,76.8,56.8,29.93,NW,315,3.8,6.0,50,0.00,,,0.01,pywws,2013-07-24 23:50:00,
2013-07-24 19:56:00,76.5,57.0,29.93,North,0,3.8,6.9,51,0.00,,,0.01,pywws,2013-07-24 23:56:00,
2013-07-24 20:05:00,76.1,56.6,29.94,North,0,5.4,6.9,51,0.00,,,0.01,pywws,2013-07-25 00:05:00,
2013-07-24 20:10:00,75.4,56.5,29.94,SW,225,2.2,3.8,52,0.00,,,0.01,pywws,2013-07-25 00:10:00,
2013-07-24 20:16:00,75.0,56.7,29.95,North,0,5.4,9.2,53,0.00,,,0.01,pywws,2013-07-25 00:16:00,
2013-07-24 20:22:00,74.5,56.2,29.95,NW,315,3.1,5.4,53,0.00,,,0.01,pywws,2013-07-25 00:22:00,
2013-07-24 20:27:00,74.3,56.6,29.95,NW,315,6.9,9.8,54,0.00,,,0.01,pywws,2013-07-25 00:27:00,
2013-07-24 20:33:00,73.9,56.2,29.96,NNW,338,5.4,7.6,54,0.00,,,0.01,pywws,2013-07-25 00:33:00,
2013-07-24 20:38:00,73.8,55.5,29.96,NW,315,3.8,9.2,53,0.00,,,0.01,pywws,2013-07-25 00:38:00,
2013-07-24 20:44:00,73.8,56.1,29.96,NE,45,6.0,8.3,54,0.00,,,0.01,pywws,2013-07-25 00:44:00,
2013-07-24 20:50:00,73.6,56.4,29.96,WNW,292,9.2,14.5,55,0.00,,,0.01,pywws,2013-07-25 00:50:00,
2013-07-24 20:56:00,73.4,55.7,29.96,North,0,6.0,9.8,54,0.00,,,0.01,pywws,2013-07-25 00:56:00,
2013-07-24 21:05:00,73.2,55.6,29.97,NW,315,3.8,6.0,54,0.00,,,0.01,pywws,2013-07-25 01:05:00,
2013-07-24 21:10:00,72.9,55.2,29.98,NW,315,8.3,13.0,54,0.00,,,0.01,pywws,2013-07-25 01:10:00,
2013-07-24 21:16:00,72.5,54.9,29.98,West,270,6.0,9.8,54,0.00,,,0.01,pywws,2013-07-25 01:16:00,
2013-07-24 21:21:00,72.5,55.4,29.98,North,0,7.6,10.7,55,0.00,,,0.01,pywws,2013-07-25 01:21:00,
2013-07-24 21:26:00,72.3,55.2,29.98,North,0,6.0,9.8,55,0.00,,,0.01,pywws,2013-07-25 01:26:00,
2013-07-24 21:32:00,72.1,55.1,29.98,North,0,5.4,11.4,55,0.00,,,0.01,pywws,2013-07-25 01:32:00,
2013-07-24 21:38:00,72.0,54.9,29.99,NW,315,5.4,7.6,55,0.00,,,0.01,pywws,2013-07-25 01:38:00,
2013-07-24 21:43:00,72.0,55.4,29.99,North,0,6.0,9.8,56,0.00,,,0.01,pywws,2013-07-25 01:43:00,
2013-07-24 21:49:00,71.8,55.2,29.99,East,90,2.2,5.4,56,0.00,,,0.01,pywws,2013-07-25 01:49:00,
2013-07-24 21:54:00,71.8,55.7,30.00,North,0,2.2,6.0,57,0.00,,,0.01,pywws,2013-07-25 01:54:00,
2013-07-24 22:05:00,71.8,56.2,30.00,NE,45,2.2,5.4,58,0.00,,,0.01,pywws,2013-07-25 02:05:00,
2013-07-24 22:10:00,71.6,55.5,30.00,East,90,3.1,5.4,57,0.00,,,0.01,pywws,2013-07-25 02:10:00,
2013-07-24 22:16:00,71.4,55.4,30.01,East,90,4.5,7.6,57,0.00,,,0.01,pywws,2013-07-25 02:16:00,
2013-07-24 22:21:00,71.2,54.7,30.01,North,0,4.5,7.6,56,0.00,,,0.01,pywws,2013-07-25 02:21:00,
2013-07-24 22:26:00,71.1,54.1,30.01,NE,45,3.8,9.8,55,0.00,,,0.01,pywws,2013-07-25 02:26:00,
2013-07-24 22:32:00,70.9,53.9,30.01,North,0,6.9,9.2,55,0.00,,,0.01,pywws,2013-07-25 02:32:00,
2013-07-24 22:38:00,70.7,53.7,30.02,North,0,3.1,5.4,55,0.00,,,0.01,pywws,2013-07-25 02:38:00,
2013-07-24 22:43:00,70.5,53.6,30.02,East,90,2.2,4.5,55,0.00,,,0.01,pywws,2013-07-25 02:43:00,
2013-07-24 22:49:00,70.3,52.9,30.02,NW,315,8.3,15.9,54,0.00,,,0.01,pywws,2013-07-25 02:49:00,
2013-07-24 22:54:00,70.0,52.6,30.03,NE,45,3.1,6.0,54,0.00,,,0.01,pywws,2013-07-25 02:54:00,
2013-07-24 23:05:00,69.8,52.4,30.03,NW,315,8.3,15.2,54,0.00,,,0.01,pywws,2013-07-25 03:05:00,
2013-07-24 23:10:00,69.4,52.6,30.03,North,0,3.1,6.9,55,0.00,,,0.01,pywws,2013-07-25 03:10:00,
2013-07-24 23:16:00,69.3,52.4,30.03,North,0,6.0,9.2,55,0.00,,,0.01,pywws,2013-07-25 03:16:00,
2013-07-24 23:22:00,68.9,52.1,30.03,North,0,3.8,8.3,55,0.00,,,0.01,pywws,2013-07-25 03:22:00,
2013-07-24 23:27:00,68.5,52.2,30.03,NE,45,5.4,9.2,56,0.00,,,0.01,pywws,2013-07-25 03:27:00,
2013-07-24 23:33:00,68.4,51.6,30.03,North,0,4.5,6.0,55,0.00,,,0.01,pywws,2013-07-25 03:33:00,
2013-07-24 23:39:00,68.4,52.0,30.03,NE,45,1.6,2.2,56,0.00,,,0.01,pywws,2013-07-25 03:39:00,
2013-07-24 23:44:00,68.2,51.9,30.03,North,0,3.1,6.9,56,0.00,,,0.01,pywws,2013-07-25 03:44:00,
2013-07-24 23:50:00,68.0,51.7,30.03,North,0,3.1,4.5,56,0.00,,,0.01,pywws,2013-07-25 03:50:00,
2013-07-24 23:56:00,67.8,52.0,30.03,North,0,6.9,11.4,57,0.00,,,0.01,pywws,2013-07-25 03:56:00,